aviador You're here:

KVTN Decoded Metar

VALENTINE in NE, USA
Report Time2018-05-27 00:52:00
UTC Time2018-05-27 01:12:35
Flight Rules vfr VFR
Wind150° at 11 kt
W.Decomp.*RWY 14: 11.0 kt HW 0.4 kt RCW
RWY 21: 4.1 kt HW 10.2 kt LCW
W.Rank150° ranks 22
Current wind is above 150° avg. (9.7)
Visibility9999 m
Phenomena:N/A
Clouds:N/A
Expected CloudBase > 6,400 ft AGL from Temp-Dew spread
CeilingNone
Temp32°C (ISA +22)
Dew Point16°C (38% RH)
Heat Index31.9°C
AAT30.0°C
QNH1007 hPa
Density Alt5,545 ft
Elevation2,585 ft
Report Wrong Elevation
Raw Report
KVTN 270052Z AUTO 15011KT 10SM CLR 32/16 A2975 RMK AO2 SLP049
T03220156=

Extra information for KVTN:More info

Metar Taf Metar & Taf Last 4 Metars F.Rules Stats Wind Profile Meteogram Temp Stats Airport Information Weather charts Add Link Nearby VenuesMetar ALERT Operation Metar Decoded Social comments

AIRNAV info for KVTN